createdAt,value
2022-08-17T00:00:34.834Z,12.80
2022-08-17T00:03:14.419Z,12.80
2022-08-17T00:05:42.691Z,11.80
2022-08-17T00:08:11.706Z,11.40
2022-08-17T00:10:39.387Z,13.70
2022-08-17T00:13:11.517Z,12.40
2022-08-17T00:15:39.227Z,12.10
2022-08-17T00:19:02.170Z,10.90
2022-08-17T00:20:55.916Z,12.80
2022-08-17T00:23:24.230Z,11.90
2022-08-17T00:25:52.545Z,11.80
2022-08-17T00:28:21.013Z,12.70
2022-08-17T00:30:52.978Z,12.20
2022-08-17T00:33:23.750Z,11.60
2022-08-17T00:35:52.382Z,12.30
2022-08-17T00:38:20.563Z,11.10
2022-08-17T00:40:55.951Z,11.20
2022-08-17T00:43:29.370Z,12.10
2022-08-17T00:45:58.344Z,13.10
2022-08-17T00:48:29.224Z,11.50
2022-08-17T00:50:59.343Z,12.20
2022-08-17T00:53:29.170Z,11.50
2022-08-17T00:55:59.246Z,13.70
2022-08-17T00:58:30.436Z,13.50
2022-08-17T01:01:05.646Z,12.40
2022-08-17T01:03:34.789Z,12.30
2022-08-17T01:06:03.047Z,11.50
2022-08-17T01:08:31.532Z,13.00
2022-08-17T01:11:05.461Z,12.20
2022-08-17T01:13:40.985Z,11.80
2022-08-17T01:16:21.847Z,15.40
2022-08-17T01:18:50.859Z,13.30
2022-08-17T01:21:22.718Z,13.90
2022-08-17T01:23:50.647Z,12.00
2022-08-17T01:26:19.389Z,12.10
2022-08-17T01:28:53.542Z,13.60
2022-08-17T01:31:24.535Z,12.50
2022-08-17T01:33:52.412Z,13.00
2022-08-17T01:36:20.553Z,12.60
2022-08-17T01:38:48.379Z,12.30
2022-08-17T01:41:16.989Z,12.40
2022-08-17T01:43:47.644Z,12.40
2022-08-17T01:46:21.408Z,12.10
2022-08-17T01:48:51.397Z,11.90
2022-08-17T01:51:20.244Z,12.40
2022-08-17T01:53:49.703Z,11.80
2022-08-17T01:56:19.662Z,12.40
2022-08-17T01:58:47.326Z,12.80
2022-08-17T02:01:16.251Z,12.90
2022-08-17T02:03:56.135Z,12.60
2022-08-17T02:06:29.115Z,13.60
2022-08-17T02:09:03.093Z,13.80
2022-08-17T02:11:33.499Z,12.20
2022-08-17T02:14:04.059Z,14.40
2022-08-17T02:16:37.695Z,12.90
2022-08-17T02:19:16.339Z,12.40
2022-08-17T02:21:45.561Z,12.80
2022-08-17T02:24:15.699Z,12.70
2022-08-17T02:26:43.818Z,12.00
2022-08-17T02:29:12.489Z,11.90
2022-08-17T02:31:40.358Z,13.70
2022-08-17T02:34:08.332Z,12.70
2022-08-17T02:36:36.422Z,12.50
2022-08-17T02:39:05.447Z,12.40
2022-08-17T02:41:33.575Z,12.10
2022-08-17T02:44:01.442Z,13.70
2022-08-17T02:46:31.098Z,14.50
2022-08-17T02:48:59.193Z,12.10
2022-08-17T02:51:27.067Z,13.30
2022-08-17T02:54:05.322Z,13.90
2022-08-17T02:56:43.214Z,12.20
2022-08-17T02:59:10.884Z,13.40
2022-08-17T03:01:38.587Z,15.40
2022-08-17T03:04:06.489Z,14.30
2022-08-17T03:06:34.288Z,13.40
2022-08-17T03:09:01.883Z,13.00
2022-08-17T03:11:29.611Z,13.70
2022-08-17T03:13:58.601Z,13.40
2022-08-17T03:16:26.755Z,12.20
2022-08-17T03:18:55.201Z,14.40
2022-08-17T03:21:22.837Z,14.00
2022-08-17T03:23:54.616Z,13.10
2022-08-17T03:26:22.631Z,13.00
2022-08-17T03:28:50.705Z,13.10
2022-08-17T03:31:18.492Z,13.70
2022-08-17T03:33:46.243Z,11.70
2022-08-17T03:36:14.402Z,14.30
2022-08-17T03:38:42.257Z,12.30
2022-08-17T03:41:13.728Z,15.10
2022-08-17T03:43:42.197Z,12.40
2022-08-17T03:46:35.325Z,13.10
2022-08-17T03:49:24.113Z,13.40
2022-08-17T03:52:11.355Z,14.90
2022-08-17T03:54:58.187Z,14.40
2022-08-17T03:57:26.626Z,13.60
2022-08-17T03:59:54.567Z,13.30
2022-08-17T04:02:24.394Z,13.10
2022-08-17T04:04:52.605Z,13.50
2022-08-17T04:07:21.282Z,13.80
2022-08-17T04:09:49.096Z,12.60
2022-08-17T04:12:17.908Z,12.40
2022-08-17T04:14:53.619Z,13.80
2022-08-17T04:17:27.082Z,12.40
2022-08-17T04:19:55.366Z,14.20
2022-08-17T04:22:30.204Z,13.60
2022-08-17T04:25:09.865Z,12.50
2022-08-17T04:27:37.532Z,14.10
2022-08-17T04:30:07.414Z,12.60
2022-08-17T04:33:03.713Z,12.10
2022-08-17T04:35:40.195Z,12.10
2022-08-17T04:38:10.448Z,12.70
2022-08-17T04:40:57.145Z,17.10
2022-08-17T04:43:26.183Z,13.50
2022-08-17T04:45:59.043Z,12.10
2022-08-17T04:48:35.812Z,12.50
2022-08-17T04:51:07.254Z,12.50
2022-08-17T04:53:34.941Z,11.70
2022-08-17T04:56:03.269Z,13.90
2022-08-17T04:58:31.195Z,12.40
2022-08-17T05:00:58.831Z,13.30
2022-08-17T05:03:26.508Z,12.10
2022-08-17T05:05:54.366Z,13.30
2022-08-17T05:08:22.248Z,14.10
2022-08-17T05:10:50.275Z,14.30
2022-08-17T05:13:19.681Z,13.30
2022-08-17T05:15:48.274Z,12.50
2022-08-17T05:18:17.681Z,11.30
2022-08-17T05:20:45.386Z,12.80
2022-08-17T05:23:15.434Z,11.80
2022-08-17T05:25:47.451Z,11.20
2022-08-17T05:28:16.892Z,9.90
2022-08-17T05:30:48.584Z,11.00
2022-08-17T05:33:19.705Z,11.70
2022-08-17T05:35:49.040Z,12.00
2022-08-17T05:38:18.334Z,11.20
2022-08-17T05:40:46.489Z,12.50
2022-08-17T05:43:14.238Z,13.50
2022-08-17T05:45:55.532Z,11.60
2022-08-17T06:01:56.554Z,13.30
2022-08-17T06:04:33.464Z,16.00
2022-08-17T06:07:01.198Z,19.00
2022-08-17T06:09:33.947Z,14.20
2022-08-17T06:12:02.153Z,14.40
2022-08-17T06:14:35.173Z,13.40
2022-08-17T06:17:04.723Z,13.80
2022-08-17T06:19:54.691Z,14.60
2022-08-17T06:22:26.059Z,14.50
2022-08-17T06:24:58.257Z,10.80
2022-08-17T06:27:32.210Z,13.30
2022-08-17T06:30:04.261Z,12.70
2022-08-17T06:32:32.212Z,11.40
2022-08-17T06:35:01.136Z,13.20
2022-08-17T06:38:04.880Z,13.40
2022-08-17T06:40:48.528Z,12.80
2022-08-17T06:43:19.676Z,14.90
2022-08-17T06:45:54.400Z,14.30
2022-08-17T06:48:29.063Z,13.70
2022-08-17T06:51:20.233Z,15.10
2022-08-17T06:53:52.104Z,13.10
2022-08-17T06:56:27.103Z,14.40
2022-08-17T07:02:51.529Z,12.80
2022-08-17T07:07:29.817Z,14.00
2022-08-17T07:13:29.385Z,13.20
2022-08-17T07:22:57.383Z,14.80
2022-08-17T07:29:01.361Z,12.00
2022-08-17T07:39:59.502Z,12.10
2022-08-17T07:43:22.189Z,14.30
2022-08-17T07:55:57.728Z,17.40
2022-08-17T08:08:55.781Z,15.60
2022-08-17T08:11:48.003Z,17.00
2022-08-17T08:17:56.784Z,19.50
2022-08-17T08:24:47.988Z,17.70
2022-08-17T08:41:13.490Z,17.70
2022-08-17T08:44:59.719Z,15.20
2022-08-17T09:01:17.130Z,13.70
2022-08-17T09:17:32.587Z,13.90
2022-08-17T09:29:36.051Z,12.00
2022-08-17T09:32:32.819Z,11.10
2022-08-17T09:42:09.615Z,11.90
2022-08-17T09:48:29.526Z,9.70
2022-08-17T09:51:45.811Z,8.80
2022-08-17T10:02:13.605Z,9.40
2022-08-17T10:11:58.259Z,9.30
2022-08-17T10:18:30.392Z,9.80
2022-08-17T10:21:41.427Z,9.70
2022-08-17T10:25:22.236Z,7.50
2022-08-17T10:29:09.273Z,7.90
2022-08-17T10:35:32.035Z,8.10
2022-08-17T10:39:11.992Z,8.70
2022-08-17T10:42:30.375Z,8.10
2022-08-17T10:45:47.048Z,8.00
2022-08-17T10:55:18.733Z,8.20
2022-08-17T10:58:32.234Z,6.80
2022-08-17T11:08:43.377Z,8.30
2022-08-17T11:11:38.962Z,8.40
2022-08-17T11:30:13.261Z,7.50
2022-08-17T11:36:08.628Z,8.40
2022-08-17T11:46:04.140Z,7.10
2022-08-17T12:09:54.467Z,8.30
2022-08-17T12:13:12.075Z,7.10
2022-08-17T12:16:32.708Z,7.00
2022-08-17T12:19:49.212Z,6.80
2022-08-17T12:29:40.554Z,6.80
2022-08-17T12:32:50.343Z,7.10
2022-08-17T12:36:10.315Z,9.40
2022-08-17T12:39:14.287Z,7.70
2022-08-17T12:42:01.926Z,8.10
2022-08-17T12:44:50.558Z,7.40
2022-08-17T12:54:16.639Z,7.30
2022-08-17T13:00:38.761Z,7.70
2022-08-17T13:06:44.129Z,6.40
2022-08-17T13:12:47.697Z,9.80
2022-08-17T13:25:11.995Z,7.40
2022-08-17T13:31:52.630Z,8.30
2022-08-17T13:35:32.407Z,7.80
2022-08-17T13:40:26.942Z,11.00
2022-08-17T13:44:00.533Z,7.00
2022-08-17T13:47:14.312Z,6.40
2022-08-17T13:50:05.245Z,8.00
2022-08-17T13:53:05.101Z,8.20
2022-08-17T14:04:08.342Z,21.80
2022-08-17T14:06:53.982Z,7.10
2022-08-17T14:09:26.384Z,7.50
2022-08-17T14:11:53.952Z,8.30
2022-08-17T14:14:22.655Z,7.60
2022-08-17T14:16:49.767Z,7.30
2022-08-17T14:19:17.788Z,6.60
2022-08-17T14:21:46.132Z,20.00
2022-08-17T14:24:33.350Z,8.90
2022-08-17T14:27:01.432Z,7.00
2022-08-17T14:29:32.227Z,10.90
2022-08-17T14:32:02.675Z,6.50
2022-08-17T14:34:33.782Z,7.40
2022-08-17T14:37:01.484Z,8.40
2022-08-17T14:39:29.614Z,7.90
2022-08-17T14:41:58.630Z,8.10
2022-08-17T14:44:25.309Z,7.30
2022-08-17T14:49:20.415Z,6.70
2022-08-17T14:51:47.491Z,8.20
2022-08-17T14:54:34.102Z,7.90
2022-08-17T14:57:17.707Z,8.80
2022-08-17T14:59:54.456Z,7.50
2022-08-17T15:02:29.365Z,7.50
2022-08-17T15:05:04.752Z,8.70
2022-08-17T15:07:31.634Z,7.70
2022-08-17T15:10:00.955Z,7.10
2022-08-17T15:12:33.161Z,7.20
2022-08-17T15:15:04.835Z,7.60
2022-08-17T15:17:44.906Z,7.40
2022-08-17T15:20:17.092Z,6.20
2022-08-17T15:22:44.702Z,8.50
2022-08-17T15:25:12.577Z,7.80
2022-08-17T15:27:40.033Z,7.70
2022-08-17T15:30:09.555Z,7.00
2022-08-17T15:32:40.493Z,8.60
2022-08-17T15:35:08.338Z,6.80
2022-08-17T15:37:36.001Z,6.70
2022-08-17T15:40:08.665Z,8.50
2022-08-17T15:42:35.515Z,5.60
2022-08-17T15:47:28.796Z,7.70
2022-08-17T15:52:29.522Z,7.80
2022-08-17T15:55:00.597Z,6.80
2022-08-17T15:57:28.354Z,8.60
2022-08-17T15:59:59.051Z,7.30
2022-08-17T16:03:45.302Z,7.80
2022-08-17T16:05:24.692Z,7.30
2022-08-17T16:07:52.487Z,7.50
2022-08-17T16:10:21.062Z,39.00
2022-08-17T16:12:49.878Z,15.90
2022-08-17T16:15:18.654Z,13.90
2022-08-17T16:17:46.000Z,18.00
2022-08-17T16:20:20.317Z,22.50
2022-08-17T16:22:49.521Z,26.90
2022-08-17T16:25:22.885Z,26.70
2022-08-17T16:28:07.839Z,22.30
2022-08-17T16:30:35.445Z,12.20
2022-08-17T16:33:03.681Z,10.20
2022-08-17T16:35:31.367Z,11.10
2022-08-17T16:38:00.003Z,11.00
2022-08-17T17:06:52.719Z,11.30
2022-08-17T17:09:23.556Z,12.00
2022-08-17T17:11:55.517Z,12.30
2022-08-17T17:14:29.987Z,13.00
2022-08-17T17:17:12.153Z,11.50
2022-08-17T17:19:45.619Z,10.40
2022-08-17T17:22:13.527Z,11.50
2022-08-17T17:24:52.308Z,13.10
2022-08-17T17:27:30.900Z,11.70
2022-08-17T17:43:41.126Z,13.20
2022-08-17T17:46:28.700Z,9.90
2022-08-17T17:48:58.005Z,10.70
2022-08-17T17:51:55.002Z,9.30
2022-08-17T17:54:21.600Z,9.30
2022-08-17T17:56:49.563Z,8.90
2022-08-17T17:59:23.986Z,8.80
2022-08-17T18:02:02.578Z,8.20
2022-08-17T18:04:32.516Z,11.60
2022-08-17T18:07:13.822Z,9.30
2022-08-17T18:10:00.874Z,9.10
2022-08-17T18:12:48.884Z,10.20
2022-08-17T18:15:29.769Z,11.90
2022-08-17T18:18:21.143Z,16.80
2022-08-17T18:20:55.976Z,19.00
2022-08-17T18:23:28.344Z,20.90
2022-08-17T18:25:59.696Z,16.10
2022-08-17T18:28:28.283Z,19.50
2022-08-17T18:31:05.488Z,16.90
2022-08-17T18:33:34.255Z,19.20
2022-08-17T18:36:03.042Z,14.90
2022-08-17T18:38:34.053Z,13.00
2022-08-17T18:41:23.745Z,12.60
2022-08-17T18:44:03.465Z,16.10
2022-08-17T18:46:37.662Z,11.80
2022-08-17T18:49:10.943Z,15.90
2022-08-17T18:51:43.317Z,13.40
2022-08-17T18:54:21.061Z,14.10
2022-08-17T18:56:52.836Z,11.50
2022-08-17T18:59:27.400Z,15.50
2022-08-17T19:02:37.329Z,15.10
2022-08-17T19:05:13.746Z,11.10
2022-08-17T19:07:46.845Z,11.90
2022-08-17T19:10:22.650Z,12.10
2022-08-17T19:12:55.501Z,16.80
2022-08-17T19:15:35.021Z,12.90
2022-08-17T19:18:18.885Z,12.90
2022-08-17T19:20:55.367Z,14.70
2022-08-17T19:23:40.939Z,14.60
2022-08-17T19:26:54.631Z,14.50
2022-08-17T19:29:19.491Z,14.80
2022-08-17T19:31:53.905Z,13.20
2022-08-17T19:34:30.209Z,17.40
2022-08-17T19:37:28.339Z,14.70
2022-08-17T19:40:02.791Z,17.90
2022-08-17T19:42:31.389Z,14.30
2022-08-17T19:45:00.313Z,11.70
2022-08-17T19:47:53.370Z,15.40
2022-08-17T19:50:41.875Z,12.40
2022-08-17T19:53:19.067Z,12.20
2022-08-17T19:55:48.014Z,15.70
2022-08-17T19:58:17.967Z,12.70
2022-08-17T20:00:50.576Z,12.50
2022-08-17T20:03:49.301Z,12.90
2022-08-17T20:06:19.418Z,12.30
2022-08-17T20:08:59.365Z,13.10
2022-08-17T20:11:43.819Z,12.40
2022-08-17T20:14:21.318Z,13.70
2022-08-17T20:16:49.908Z,11.90
2022-08-17T20:19:22.583Z,11.80
2022-08-17T20:21:57.612Z,13.30
2022-08-17T20:24:26.375Z,14.30
2022-08-17T20:27:15.203Z,12.40
2022-08-17T20:30:02.594Z,13.70
2022-08-17T20:32:58.313Z,13.20
2022-08-17T20:35:26.577Z,14.50
2022-08-17T20:38:02.401Z,14.60
2022-08-17T20:40:51.906Z,14.30
2022-08-17T20:43:35.902Z,15.60
2022-08-17T20:46:23.251Z,13.80
2022-08-17T20:48:55.755Z,13.50
2022-08-17T20:51:24.030Z,11.70
2022-08-17T20:53:55.473Z,14.70
2022-08-17T20:56:42.077Z,12.50
2022-08-17T20:59:30.634Z,13.30
2022-08-17T21:02:18.590Z,11.40
2022-08-17T21:04:50.571Z,13.30
2022-08-17T21:07:41.098Z,12.80
2022-08-17T21:10:28.451Z,13.20
2022-08-17T21:13:08.427Z,12.60
2022-08-17T21:15:40.363Z,13.30
2022-08-17T21:18:40.715Z,14.10
2022-08-17T21:21:35.957Z,14.00
2022-08-17T21:24:21.891Z,14.20
2022-08-17T21:27:03.163Z,12.60
2022-08-17T21:29:33.915Z,14.90
2022-08-17T21:32:09.644Z,12.70
2022-08-17T21:34:41.723Z,13.30
2022-08-17T21:37:30.627Z,12.90
2022-08-17T21:40:00.736Z,12.50
2022-08-17T21:42:31.943Z,15.50
2022-08-17T21:45:01.764Z,16.40
2022-08-17T21:47:30.810Z,12.60
2022-08-17T21:50:16.368Z,15.30
2022-08-17T21:52:44.217Z,14.80
2022-08-17T21:55:19.833Z,13.90
2022-08-17T21:57:49.896Z,14.80
2022-08-17T22:00:38.386Z,14.40
2022-08-17T22:03:21.351Z,15.10
2022-08-17T22:05:51.732Z,13.00
2022-08-17T22:08:24.953Z,11.80
2022-08-17T22:11:00.072Z,13.20
2022-08-17T22:13:29.733Z,14.00
2022-08-17T22:16:29.301Z,14.20
2022-08-17T22:18:58.943Z,11.90
2022-08-17T22:21:27.402Z,14.50
2022-08-17T22:24:04.035Z,13.10
2022-08-17T22:26:52.061Z,13.20
2022-08-17T22:29:40.904Z,13.40
2022-08-17T22:32:09.449Z,12.70
2022-08-17T22:34:39.570Z,14.10
2022-08-17T22:37:21.366Z,13.40
2022-08-17T22:39:59.791Z,15.90
2022-08-17T22:42:29.400Z,13.80
2022-08-17T22:44:57.924Z,13.60
2022-08-17T22:47:31.842Z,13.30
2022-08-17T22:50:01.602Z,14.70
2022-08-17T22:53:00.461Z,14.70
2022-08-17T22:55:49.219Z,13.60
2022-08-17T22:58:37.873Z,15.10
2022-08-17T23:01:24.903Z,14.30
2022-08-17T23:03:54.874Z,16.00
2022-08-17T23:06:24.325Z,13.90
2022-08-17T23:08:55.159Z,13.90
2022-08-17T23:11:36.764Z,14.60
2022-08-17T23:14:16.925Z,12.90
2022-08-17T23:16:44.521Z,12.70
2022-08-17T23:19:13.865Z,13.30
2022-08-17T23:21:42.465Z,13.10
2022-08-17T23:24:11.864Z,15.30
2022-08-17T23:26:41.366Z,13.00
2022-08-17T23:29:09.532Z,13.10
2022-08-17T23:31:38.830Z,12.60
2022-08-17T23:34:09.227Z,13.90
2022-08-17T23:36:38.044Z,12.70
2022-08-17T23:39:06.361Z,12.10
2022-08-17T23:41:36.346Z,13.60
2022-08-17T23:44:04.841Z,14.40
2022-08-17T23:46:32.884Z,14.10
2022-08-17T23:49:00.859Z,14.20
2022-08-17T23:51:31.106Z,14.10
2022-08-17T23:54:07.706Z,13.00
2022-08-17T23:56:42.336Z,14.80
2022-08-17T23:59:10.244Z,13.40
